Time;durP1;ratioP1;P1;durP2;ratioP2;P2;SDS_P1;SDS_P2;PMS_P1;PMS_P2;Temp;Humidity;BMP_temperature;BMP_pressure;BME280_temperature;BME280_humidity;BME280_pressure;Samples;Min_cycle;Max_cycle;Signal;HPM_P1;HPM_P2
2022/01/28 00:05:03;;;;;;;;;;;2.00;99.60;;;;;;4986001;28;20028;-94
2022/01/28 00:07:29;;;;;;;;;;;2.00;99.50;;;;;;4985343;28;19969;-93
2022/01/28 00:09:54;;;;;;;;;;;2.00;99.50;;;;;;4985411;28;19910;-94
2022/01/28 00:12:20;;;;;;;;;;;2.00;99.80;;;;;;4987211;28;19933;-94
2022/01/28 00:36:45;;;;;;;;;;;2.00;99.90;;;;;;5004431;28;20395;-93
2022/01/28 00:39:10;;;;;;;;;;;2.00;99.90;;;;;;5004751;28;19914;-94
2022/01/28 00:41:36;;;;;;;;;;;2.00;99.90;;;;;;4988606;28;19990;-93
2022/01/28 00:44:04;;;;;;;;;;;2.10;99.90;;;;;;5017726;28;19929;-93
2022/01/28 00:46:30;;;;;;;;;;;2.10;99.90;;;;;;4998972;28;19917;-94
2022/01/28 00:48:56;;;;;;;;;;;2.10;99.90;;;;;;5009398;28;19910;-94
2022/01/28 00:51:22;;;;;;;;;;;2.00;99.90;;;;;;4989344;28;19978;-96
2022/01/28 00:53:48;;;;;;;;;;;2.10;99.90;;;;;;4987665;28;19980;-94
2022/01/28 00:56:13;;;;;;;;;;;2.10;99.90;;;;;;4988131;28;19917;-94
2022/01/28 00:58:39;;;;;;;;;;;2.10;99.80;;;;;;4988395;28;19914;-93
2022/01/28 01:01:05;;;;;;;;;;;2.10;99.90;;;;;;4988634;28;19910;-93
2022/01/28 01:03:31;;;;;;;;;;;2.10;99.90;;;;;;4988768;28;19977;-94
2022/01/28 01:05:59;;;;;;;;;;;2.10;99.90;;;;;;4988235;28;19913;-93
2022/01/28 01:08:27;;;;;;;;;;;2.10;99.90;;;;;;4989577;28;19913;-94
2022/01/28 01:10:54;;;;;;;;;;;2.10;99.90;;;;;;4987042;28;19909;-93
2022/01/28 01:13:20;;;;;;;;;;;2.10;99.90;;;;;;4987626;28;19914;-94
2022/01/28 01:15:50;;;;;;;;;;;2.10;99.90;;;;;;4969561;28;19910;-94
2022/01/28 01:18:26;;;;;;;;;;;2.10;99.90;;;;;;4971553;28;20378;-93
2022/01/28 01:21:00;;;;;;;;;;;2.00;99.90;;;;;;4966540;28;19910;-94
2022/01/28 01:23:30;;;;;;;;;;;2.10;99.90;;;;;;4968903;28;19918;-94
2022/01/28 01:28:31;;;;;;;;;;;2.10;99.90;;;;;;4998638;28;19962;-94
2022/01/28 01:30:59;;;;;;;;;;;2.10;99.90;;;;;;4982312;28;19957;-93
2022/01/28 01:33:26;;;;;;;;;;;2.10;99.90;;;;;;4982403;28;19933;-95
2022/01/28 01:35:51;;;;;;;;;;;2.10;99.90;;;;;;4971441;28;19965;-94
2022/01/28 01:38:17;;;;;;;;;;;2.10;99.90;;;;;;4967830;28;19910;-94
2022/01/28 01:40:55;;;;;;;;;;;2.20;99.90;;;;;;4966629;28;19941;-93
2022/01/28 01:54:03;;;;;;;;;;;2.20;99.90;;;;;;4984605;28;19938;-94
2022/01/28 01:56:29;;;;;;;;;;;2.20;99.90;;;;;;4970759;28;20354;-94
2022/01/28 01:58:58;;;;;;;;;;;2.20;99.90;;;;;;4970669;28;19957;-94
2022/01/28 02:01:23;;;;;;;;;;;2.20;99.90;;;;;;4970741;28;19934;-92
2022/01/28 02:03:49;;;;;;;;;;;2.20;99.90;;;;;;4971928;28;19914;-94
2022/01/28 02:06:18;;;;;;;;;;;2.30;99.90;;;;;;4970190;28;19914;-94
2022/01/28 02:08:46;;;;;;;;;;;2.20;99.90;;;;;;4971097;28;19986;-93
2022/01/28 02:11:12;;;;;;;;;;;2.30;99.90;;;;;;4972075;28;19910;-94
2022/01/28 02:13:38;;;;;;;;;;;2.30;99.90;;;;;;4972799;28;20315;-94
2022/01/28 02:16:05;;;;;;;;;;;2.30;99.90;;;;;;4990065;28;19932;-94
2022/01/28 02:18:31;;;;;;;;;;;2.30;99.90;;;;;;4990439;28;19910;-93
2022/01/28 02:21:04;;;;;;;;;;;2.30;99.90;;;;;;4992529;28;19917;-94
2022/01/28 02:23:29;;;;;;;;;;;2.30;99.90;;;;;;4991437;28;19920;-94
2022/01/28 02:25:59;;;;;;;;;;;2.30;99.90;;;;;;5008518;28;19914;-93
2022/01/28 02:28:27;;;;;;;;;;;2.30;99.90;;;;;;4988905;28;19913;-93
2022/01/28 02:30:53;;;;;;;;;;;2.30;99.90;;;;;;4989277;28;19909;-94
2022/01/28 02:33:22;;;;;;;;;;;2.30;99.90;;;;;;4990351;28;19921;-94
2022/01/28 02:35:49;;;;;;;;;;;2.30;99.90;;;;;;4988532;28;19910;-94
2022/01/28 02:38:15;;;;;;;;;;;2.30;99.90;;;;;;4990975;28;19981;-93
2022/01/28 02:40:46;;;;;;;;;;;2.30;99.90;;;;;;4989121;28;20348;-94
2022/01/28 02:45:45;;;;;;;;;;;2.30;99.90;;;;;;5003971;28;19964;-94
2022/01/28 02:48:27;;;;;;;;;;;2.30;99.90;;;;;;4986763;28;19955;-94
2022/01/28 02:51:03;;;;;;;;;;;2.30;99.90;;;;;;4987232;28;19918;-94
2022/01/28 02:53:41;;;;;;;;;;;2.30;99.90;;;;;;4986068;28;19920;-94
2022/01/28 02:59:02;;;;;;;;;;;2.20;99.90;;;;;;4991661;28;19916;-94
2022/01/28 03:01:28;;;;;;;;;;;2.30;99.90;;;;;;4986283;28;19913;-94
2022/01/28 03:03:55;;;;;;;;;;;2.30;99.90;;;;;;4986944;28;19992;-94
2022/01/28 03:06:21;;;;;;;;;;;2.30;99.90;;;;;;4987303;28;20283;-93
2022/01/28 03:08:55;;;;;;;;;;;2.20;99.90;;;;;;4986212;28;19914;-94
2022/01/28 03:14:15;;;;;;;;;;;2.20;99.90;;;;;;5001105;28;20008;-93
2022/01/28 03:17:49;;;;;;;;;;;2.20;99.90;;;;;;4967923;28;19917;-94
2022/01/28 03:19:41;;;;;;;;;;;2.20;99.90;;;;;;4975032;28;19969;-94
2022/01/28 03:22:06;;;;;;;;;;;2.20;99.90;;;;;;4987641;28;20369;-93
2022/01/28 03:24:32;;;;;;;;;;;2.20;99.90;;;;;;4969319;28;19917;-95
2022/01/28 03:27:07;;;;;;;;;;;2.20;99.90;;;;;;4968620;28;20014;-94
2022/01/28 03:29:33;;;;;;;;;;;2.20;99.90;;;;;;4968232;28;19918;-94
2022/01/28 03:31:58;;;;;;;;;;;2.30;99.90;;;;;;4970196;28;20007;-94
2022/01/28 03:34:24;;;;;;;;;;;2.30;99.90;;;;;;4968803;28;20261;-94
2022/01/28 03:36:53;;;;;;;;;;;2.30;99.90;;;;;;4964409;29;19923;-94
2022/01/28 03:39:18;;;;;;;;;;;2.30;99.90;;;;;;4965605;29;19914;-94
2022/01/28 03:41:45;;;;;;;;;;;2.30;99.90;;;;;;4963773;28;19916;-94
2022/01/28 03:44:10;;;;;;;;;;;2.30;99.90;;;;;;4966134;29;19917;-94
2022/01/28 03:46:36;;;;;;;;;;;2.30;99.90;;;;;;4964674;28;19993;-94
2022/01/28 03:49:02;;;;;;;;;;;2.30;99.90;;;;;;4964614;28;19911;-94
2022/01/28 03:51:28;;;;;;;;;;;2.30;99.90;;;;;;4965004;28;19926;-95
2022/01/28 03:53:54;;;;;;;;;;;2.30;99.90;;;;;;4965634;29;19911;-93
2022/01/28 03:56:20;;;;;;;;;;;2.30;99.90;;;;;;4965201;28;20009;-94
2022/01/28 03:58:45;;;;;;;;;;;2.30;99.90;;;;;;4965502;29;19914;-94
2022/01/28 04:01:36;;;;;;;;;;;2.30;99.90;;;;;;4963917;29;19911;-94
2022/01/28 04:12:03;;;;;;;;;;;2.40;99.90;;;;;;4945258;28;19981;-95
2022/01/28 04:14:41;;;;;;;;;;;2.40;99.90;;;;;;4955511;28;20354;-93
2022/01/28 04:17:20;;;;;;;;;;;2.40;99.90;;;;;;4948216;29;19911;-93
2022/01/28 04:19:47;;;;;;;;;;;2.40;99.90;;;;;;4950370;29;19967;-94
2022/01/28 04:22:12;;;;;;;;;;;2.40;99.90;;;;;;4946756;29;19917;-95
2022/01/28 04:24:38;;;;;;;;;;;2.40;99.90;;;;;;4965451;29;19911;-94
2022/01/28 04:27:04;;;;;;;;;;;2.40;99.90;;;;;;4947470;29;20017;-94
2022/01/28 04:29:29;;;;;;;;;;;2.40;99.90;;;;;;4946986;29;19914;-94
2022/01/28 04:31:55;;;;;;;;;;;2.40;99.90;;;;;;4947753;29;19911;-94
2022/01/28 04:34:22;;;;;;;;;;;2.40;99.90;;;;;;4949745;29;19986;-94
2022/01/28 04:42:40;;;;;;;;;;;2.30;99.90;;;;;;4960723;28;19933;-94
2022/01/28 04:47:44;;;;;;;;;;;2.30;99.90;;;;;;4983743;28;19910;-94
2022/01/28 04:55:30;;;;;;;;;;;2.30;99.90;;;;;;4986799;28;19911;-93
2022/01/28 04:58:27;;;;;;;;;;;2.30;99.90;;;;;;4969705;28;19914;-94
2022/01/28 05:00:59;;;;;;;;;;;2.30;99.90;;;;;;4968233;28;20378;-94
2022/01/28 05:03:44;;;;;;;;;;;2.30;99.90;;;;;;4967751;28;19910;-93
2022/01/28 05:15:24;;;;;;;;;;;2.30;99.90;;;;;;4933218;29;19918;-93
2022/01/28 05:25:50;;;;;;;;;;;2.40;99.90;;;;;;4983892;28;19965;-93
2022/01/28 05:28:25;;;;;;;;;;;2.40;99.90;;;;;;4973629;28;19960;-93
2022/01/28 05:30:51;;;;;;;;;;;2.40;99.90;;;;;;4975682;28;19910;-93
2022/01/28 05:33:22;;;;;;;;;;;2.30;99.90;;;;;;4976602;28;19953;-93
2022/01/28 05:35:48;;;;;;;;;;;2.30;99.90;;;;;;4979399;28;20331;-94
2022/01/28 05:38:13;;;;;;;;;;;2.30;99.90;;;;;;4977414;28;19914;-94
2022/01/28 05:40:41;;;;;;;;;;;2.30;99.90;;;;;;4976272;28;20396;-94
2022/01/28 05:43:31;;;;;;;;;;;2.30;99.90;;;;;;4976838;28;19917;-93
2022/01/28 05:45:55;;;;;;;;;;;2.30;99.90;;;;;;4993191;28;20008;-93
2022/01/28 05:48:21;;;;;;;;;;;2.30;99.90;;;;;;4979290;28;19911;-94
2022/01/28 05:50:47;;;;;;;;;;;2.20;99.90;;;;;;4976177;28;19942;-94
2022/01/28 05:53:21;;;;;;;;;;;2.30;99.90;;;;;;4979713;28;19910;-93
2022/01/28 05:58:44;;;;;;;;;;;2.30;99.90;;;;;;5000049;28;19991;-94
2022/01/28 06:01:12;;;;;;;;;;;2.30;99.90;;;;;;4998712;28;19914;-94
2022/01/28 06:03:47;;;;;;;;;;;2.30;99.90;;;;;;4977896;28;19935;-93
2022/01/28 06:06:23;;;;;;;;;;;2.30;99.90;;;;;;4980625;28;19921;-93
2022/01/28 06:08:49;;;;;;;;;;;2.30;99.90;;;;;;4982214;28;19914;-93
2022/01/28 06:11:18;;;;;;;;;;;2.30;99.90;;;;;;4981586;28;19921;-95
2022/01/28 06:14:15;;;;;;;;;;;;;;;;;;;;;
2022/01/28 06:16:42;;;;;;;;;;;2.30;99.90;;;;;;5019303;28;19953;-94
2022/01/28 06:19:11;;;;;;;;;;;2.40;99.90;;;;;;4999955;28;19909;-94
2022/01/28 06:21:38;;;;;;;;;;;2.40;99.90;;;;;;4984328;28;19944;-94
2022/01/28 06:24:07;;;;;;;;;;;2.40;99.90;;;;;;5001767;28;19924;-94
2022/01/28 06:26:36;;;;;;;;;;;2.40;99.90;;;;;;5001049;28;19920;-94
2022/01/28 06:29:10;;;;;;;;;;;2.40;99.90;;;;;;5000355;28;19921;-94
2022/01/28 06:32:02;;;;;;;;;;;2.40;99.90;;;;;;5001074;28;19910;-94
2022/01/28 06:34:36;;;;;;;;;;;2.40;99.90;;;;;;5000343;28;19918;-94
2022/01/28 06:37:09;;;;;;;;;;;2.40;99.90;;;;;;4998873;28;19929;-93
2022/01/28 06:39:47;;;;;;;;;;;2.40;99.90;;;;;;4997189;28;19945;-93
2022/01/28 06:45:23;;;;;;;;;;;2.50;99.90;;;;;;5014171;28;20044;-93
2022/01/28 06:48:10;;;;;;;;;;;2.50;99.90;;;;;;4993893;28;19917;-94
2022/01/28 06:50:37;;;;;;;;;;;2.50;99.90;;;;;;4994177;28;19918;-93
2022/01/28 06:53:09;;;;;;;;;;;2.40;99.90;;;;;;4997983;28;19909;-93
2022/01/28 06:56:02;;;;;;;;;;;2.40;99.90;;;;;;4996815;28;19945;-94
2022/01/28 06:58:35;;;;;;;;;;;2.40;99.90;;;;;;4996866;28;19956;-94
2022/01/28 07:01:12;;;;;;;;;;;2.50;99.90;;;;;;4999049;28;19914;-94
2022/01/28 07:03:41;;;;;;;;;;;2.40;99.90;;;;;;5003024;28;19977;-94
2022/01/28 07:06:14;;;;;;;;;;;2.50;99.90;;;;;;5002258;28;19941;-94
2022/01/28 07:08:45;;;;;;;;;;;2.50;99.90;;;;;;4998664;28;19918;-94
2022/01/28 07:11:17;;;;;;;;;;;2.50;99.90;;;;;;4996456;28;19909;-94
2022/01/28 07:13:51;;;;;;;;;;;2.50;99.90;;;;;;4993103;28;19998;-95
2022/01/28 07:16:19;;;;;;;;;;;2.60;99.90;;;;;;4977370;28;19910;-93
2022/01/28 07:19:06;;;;;;;;;;;2.60;99.90;;;;;;4978946;28;19953;-93
2022/01/28 07:21:42;;;;;;;;;;;;;;;;;;;;;
2022/01/28 07:24:16;;;;;;;;;;;2.60;99.90;;;;;;4991648;28;20356;-94
2022/01/28 07:26:47;;;;;;;;;;;2.60;99.90;;;;;;4975008;28;19940;-93
2022/01/28 07:29:13;;;;;;;;;;;2.60;99.90;;;;;;4975208;28;19914;-94
2022/01/28 07:31:47;;;;;;;;;;;2.60;99.90;;;;;;4977774;28;19982;-94
2022/01/28 07:34:13;;;;;;;;;;;2.60;99.90;;;;;;4982881;28;19903;-94
2022/01/28 07:36:41;;;;;;;;;;;2.60;99.90;;;;;;4999866;28;19926;-93
2022/01/28 07:39:07;;;;;;;;;;;2.60;99.90;;;;;;4982847;28;19950;-94
2022/01/28 07:41:40;;;;;;;;;;;2.60;99.90;;;;;;4975467;28;19910;-94
2022/01/28 07:44:23;;;;;;;;;;;2.70;99.90;;;;;;4970403;28;20235;-94
2022/01/28 07:46:51;;;;;;;;;;;2.70;99.90;;;;;;4971762;28;19924;-93
2022/01/28 07:49:51;;;;;;;;;;;2.70;99.90;;;;;;4976850;28;19910;-93
2022/01/28 07:52:32;;;;;;;;;;;2.80;99.90;;;;;;4971164;28;20009;-94
2022/01/28 07:55:22;;;;;;;;;;;2.80;99.90;;;;;;4976602;28;19949;-95
2022/01/28 07:58:30;;;;;;;;;;;;;;;;;;;;;
2022/01/28 08:01:36;;;;;;;;;;;2.80;99.90;;;;;;4918282;29;19919;-96
2022/01/28 08:08:18;;;;;;;;;;;;;;;;;;;;;
2022/01/28 08:11:19;;;;;;;;;;;3.20;99.90;;;;;;4825254;29;19967;-93
2022/01/28 08:14:17;;;;;;;;;;;;;;;;;;;;;
2022/01/28 08:20:21;;;;;;;;;;;3.40;99.90;;;;;;4874940;29;20007;-94
2022/01/28 08:22:57;;;;;;;;;;;3.50;99.50;;;;;;4875321;29;19927;-94
2022/01/28 08:25:55;;;;;;;;;;;;;;;;;;;;;
2022/01/28 08:35:07;;;;;;;;;;;;;;;;;;;;;
2022/01/28 08:38:14;;;;;;;;;;;;;;;;;;;;;
2022/01/28 08:47:30;;;;;;;;;;;;;;;;;;;;;
2022/01/28 08:53:12;;;;;;;;;;;3.80;99.10;;;;;;4990719;28;19980;-94
2022/01/28 08:55:46;;;;;;;;;;;3.90;99.00;;;;;;4992231;28;19945;-96
2022/01/28 08:58:41;;;;;;;;;;;;;;;;;;;;;
2022/01/28 09:04:49;;;;;;;;;;;;;;;;;;;;;
2022/01/28 09:07:48;;;;;;;;;;;3.90;98.50;;;;;;4998417;28;19925;-96
2022/01/28 09:10:57;;;;;;;;;;;3.80;98.90;;;;;;5009385;28;19938;-96
2022/01/28 09:13:43;;;;;;;;;;;3.80;99.10;;;;;;4993047;28;19910;-95
2022/01/28 09:19:17;;;;;;;;;;;;;;;;;;;;;
2022/01/28 09:25:39;;;;;;;;;;;3.60;99.40;;;;;;5012708;28;19916;-95
2022/01/28 09:28:18;;;;;;;;;;;3.50;99.60;;;;;;4956094;28;19913;-95
2022/01/28 09:31:14;;;;;;;;;;;3.50;99.90;;;;;;5013287;28;19969;-94
2022/01/28 09:34:22;;;;;;;;;;;;;;;;;;;;;
2022/01/28 09:40:01;;;;;;;;;;;3.80;99.90;;;;;;4984780;28;19924;-95
2022/01/28 09:42:41;;;;;;;;;;;3.90;99.90;;;;;;4993930;28;19917;-92
2022/01/28 09:45:27;;;;;;;;;;;4.00;99.90;;;;;;5005998;28;19937;-95
2022/01/28 09:47:59;;;;;;;;;;;4.00;99.80;;;;;;4988299;28;19981;-93
2022/01/28 09:50:37;;;;;;;;;;;4.10;99.80;;;;;;4987561;28;19918;-94
2022/01/28 09:57:03;;;;;;;;;;;4.10;99.50;;;;;;4911431;29;20020;-94
2022/01/28 10:00:06;;;;;;;;;;;;;;;;;;;;;
2022/01/28 10:02:50;;;;;;;;;;;4.10;99.60;;;;;;4905869;29;19936;-94
2022/01/28 10:05:25;;;;;;;;;;;4.10;99.50;;;;;;4907662;29;20010;-95
2022/01/28 10:14:31;;;;;;;;;;;4.40;99.20;;;;;;4905567;29;19916;-94
2022/01/28 10:18:05;;;;;;;;;;;4.50;99.30;;;;;;4920070;29;19919;-94
2022/01/28 10:24:33;;;;;;;;;;;;;;;;;;;;;
2022/01/28 10:28:13;;;;;;;;;;;5.10;98.50;;;;;;4893433;29;19927;-95
2022/01/28 10:34:02;;;;;;;;;;;5.20;97.00;;;;;;4854711;29;19923;-96
2022/01/28 10:36:30;;;;;;;;;;;5.20;97.20;;;;;;4862030;29;19927;-96
2022/01/28 10:39:23;;;;;;;;;;;5.30;96.90;;;;;;4832819;29;19923;-95
2022/01/28 11:51:02;;;;;;;;;;;;;;;;;;;;;
2022/01/28 12:32:11;;;;;;;;;;;5.30;92.70;;;;;;4854143;29;19973;-95
2022/01/28 15:17:23;;;;;;;;;;;4.30;94.90;;;;;;4886591;29;20368;-95
2022/01/28 15:20:12;;;;;;;;;;;4.30;95.00;;;;;;4847735;29;19948;-92
2022/01/28 15:23:04;;;;;;;;;;;4.20;95.00;;;;;;4859229;29;20429;-93
2022/01/28 15:26:00;;;;;;;;;;;;;;;;;;;;;
2022/01/28 18:14:53;;;;;;;;;;;;;;;;;;;;;
2022/01/28 18:17:23;;;;;;;;;;;3.80;98.50;;;;;;4979565;28;19940;-92
2022/01/28 18:23:37;;;;;;;;;;;3.80;99.00;;;;;;4929573;29;19939;-93
2022/01/28 18:29:40;;;;;;;;;;;3.80;98.90;;;;;;4994780;28;20265;-95
2022/01/28 18:32:38;;;;;;;;;;;3.80;99.00;;;;;;4933297;28;19917;-95
2022/01/28 18:35:10;;;;;;;;;;;3.70;99.10;;;;;;4990859;28;19910;-96
2022/01/28 18:37:46;;;;;;;;;;;3.70;99.40;;;;;;5003941;28;19917;-95
2022/01/28 18:40:17;;;;;;;;;;;3.70;99.30;;;;;;4986280;28;19932;-95
2022/01/28 18:42:56;;;;;;;;;;;3.60;99.50;;;;;;4988945;28;19925;-96
2022/01/28 18:45:41;;;;;;;;;;;3.60;99.70;;;;;;5005549;28;19918;-96
2022/01/28 18:48:13;;;;;;;;;;;3.60;99.90;;;;;;4998437;28;19956;-96
2022/01/28 18:50:39;;;;;;;;;;;3.60;99.90;;;;;;4975666;28;19918;-96
2022/01/28 18:53:16;;;;;;;;;;;3.60;99.90;;;;;;5011199;28;19918;-96
2022/01/28 18:55:47;;;;;;;;;;;3.50;99.90;;;;;;5008509;28;19910;-96
2022/01/28 18:58:15;;;;;;;;;;;3.50;99.90;;;;;;4992302;28;19917;-96
2022/01/28 19:00:42;;;;;;;;;;;3.50;99.90;;;;;;4989882;28;19914;-96
2022/01/28 19:03:09;;;;;;;;;;;3.50;99.90;;;;;;4991348;28;19958;-96
2022/01/28 19:05:35;;;;;;;;;;;3.50;99.90;;;;;;4986634;28;19918;-96
2022/01/28 19:08:00;;;;;;;;;;;3.50;99.90;;;;;;4989767;28;19933;-96
2022/01/28 19:10:29;;;;;;;;;;;3.50;99.90;;;;;;4986767;28;19910;-95
2022/01/28 19:12:55;;;;;;;;;;;3.50;99.90;;;;;;4985346;28;19924;-95
2022/01/28 19:15:22;;;;;;;;;;;3.50;99.90;;;;;;5003882;28;19922;-96
2022/01/28 19:17:49;;;;;;;;;;;3.50;99.90;;;;;;4974080;28;19914;-96
2022/01/28 19:20:16;;;;;;;;;;;3.40;99.90;;;;;;4975402;28;19914;-95
2022/01/28 19:22:44;;;;;;;;;;;3.40;99.90;;;;;;4988296;28;19910;-95
2022/01/28 19:25:11;;;;;;;;;;;3.40;99.90;;;;;;4986903;28;19909;-95
2022/01/28 19:27:37;;;;;;;;;;;3.40;99.90;;;;;;4987890;28;19918;-96
2022/01/28 19:30:05;;;;;;;;;;;3.40;99.90;;;;;;4989788;28;19985;-96
2022/01/28 19:32:33;;;;;;;;;;;3.40;99.90;;;;;;4993195;28;19910;-96
2022/01/28 19:34:59;;;;;;;;;;;3.40;99.90;;;;;;4993034;28;19917;-95
2022/01/28 19:37:28;;;;;;;;;;;3.40;99.90;;;;;;4992832;28;19910;-96
2022/01/28 19:39:53;;;;;;;;;;;3.30;99.90;;;;;;4989943;28;20415;-96
2022/01/28 19:42:19;;;;;;;;;;;3.40;99.90;;;;;;5005332;28;19954;-96
2022/01/28 19:44:45;;;;;;;;;;;3.30;99.90;;;;;;4988554;28;19910;-95
2022/01/28 19:47:11;;;;;;;;;;;3.30;99.90;;;;;;4989594;28;19921;-95
2022/01/28 19:49:40;;;;;;;;;;;3.30;99.90;;;;;;4987456;28;19953;-95
2022/01/28 19:52:06;;;;;;;;;;;3.20;99.90;;;;;;4988144;28;19910;-94
2022/01/28 19:54:31;;;;;;;;;;;3.20;99.90;;;;;;4988215;28;19910;-95
2022/01/28 19:56:57;;;;;;;;;;;3.20;99.90;;;;;;4988057;28;19910;-95
2022/01/28 19:59:23;;;;;;;;;;;3.20;99.90;;;;;;5007773;28;19917;-94
2022/01/28 20:01:48;;;;;;;;;;;3.20;99.90;;;;;;4988660;28;19910;-95
2022/01/28 20:04:14;;;;;;;;;;;3.20;99.90;;;;;;4989945;28;20421;-95
2022/01/28 20:06:40;;;;;;;;;;;3.10;99.90;;;;;;4990215;28;19917;-96
2022/01/28 20:09:06;;;;;;;;;;;3.10;99.90;;;;;;4990473;28;19910;-96
2022/01/28 20:11:35;;;;;;;;;;;3.10;99.90;;;;;;4992310;28;19914;-96
2022/01/28 20:14:01;;;;;;;;;;;3.10;99.90;;;;;;4990407;28;19949;-96
2022/01/28 20:16:27;;;;;;;;;;;3.20;99.90;;;;;;4991251;28;19916;-96
2022/01/28 20:18:52;;;;;;;;;;;3.20;99.90;;;;;;4992555;28;20008;-96
2022/01/28 20:21:18;;;;;;;;;;;3.20;99.90;;;;;;4991403;28;19910;-95
2022/01/28 20:23:44;;;;;;;;;;;3.20;99.90;;;;;;4989554;28;19917;-95
2022/01/28 20:26:10;;;;;;;;;;;3.20;99.90;;;;;;4991835;28;19933;-94
2022/01/28 20:28:36;;;;;;;;;;;3.30;99.90;;;;;;4996102;28;19909;-95
2022/01/28 20:31:04;;;;;;;;;;;3.30;99.90;;;;;;4994868;28;19910;-94
2022/01/28 20:33:30;;;;;;;;;;;3.30;99.90;;;;;;4988459;28;20412;-95
2022/01/28 20:35:56;;;;;;;;;;;3.30;99.90;;;;;;4987611;28;19996;-95
2022/01/28 20:38:23;;;;;;;;;;;3.30;99.90;;;;;;5006317;28;19910;-95
2022/01/28 20:40:49;;;;;;;;;;;3.40;99.90;;;;;;4987529;28;19913;-95
2022/01/28 20:43:16;;;;;;;;;;;3.40;99.90;;;;;;4988070;28;19920;-96
2022/01/28 20:45:41;;;;;;;;;;;3.40;99.90;;;;;;4985891;28;20012;-96
2022/01/28 20:48:07;;;;;;;;;;;3.40;99.90;;;;;;4987089;28;19964;-95
2022/01/28 20:50:33;;;;;;;;;;;3.40;99.90;;;;;;4991343;28;19914;-96
2022/01/28 20:53:00;;;;;;;;;;;3.40;99.90;;;;;;4987612;28;19916;-95
2022/01/28 20:55:26;;;;;;;;;;;3.40;99.90;;;;;;4988623;28;19916;-96
2022/01/28 20:57:52;;;;;;;;;;;3.30;99.90;;;;;;4988897;28;19917;-95
2022/01/28 21:00:18;;;;;;;;;;;3.40;99.90;;;;;;4986832;28;19914;-96
2022/01/28 21:02:48;;;;;;;;;;;3.40;99.90;;;;;;4990677;28;19914;-95
2022/01/28 21:05:14;;;;;;;;;;;3.40;99.90;;;;;;4992670;28;19909;-96
2022/01/28 21:07:46;;;;;;;;;;;3.40;99.90;;;;;;4991701;28;19917;-95
2022/01/28 21:10:13;;;;;;;;;;;3.40;99.90;;;;;;4998431;28;19910;-93
2022/01/28 21:12:38;;;;;;;;;;;3.40;99.90;;;;;;5016767;28;19920;-94
2022/01/28 21:15:09;;;;;;;;;;;3.40;99.90;;;;;;4994791;28;19921;-96
2022/01/28 21:17:36;;;;;;;;;;;3.40;99.90;;;;;;4991827;28;19955;-95
2022/01/28 21:20:10;;;;;;;;;;;3.40;99.90;;;;;;4992700;28;19913;-96
2022/01/28 21:22:36;;;;;;;;;;;3.40;99.90;;;;;;4991156;28;19910;-96
2022/01/28 21:25:04;;;;;;;;;;;3.40;99.90;;;;;;4995443;28;19971;-95
2022/01/28 21:27:30;;;;;;;;;;;3.40;99.90;;;;;;4993238;28;19926;-95
2022/01/28 21:29:56;;;;;;;;;;;3.40;99.90;;;;;;4992964;28;19956;-96
2022/01/28 21:32:22;;;;;;;;;;;3.40;99.90;;;;;;4991919;28;19917;-96
2022/01/28 21:34:50;;;;;;;;;;;3.40;99.90;;;;;;4993898;28;19914;-96
2022/01/28 21:37:16;;;;;;;;;;;3.40;99.90;;;;;;4991496;28;19910;-94
2022/01/28 21:39:44;;;;;;;;;;;3.40;99.90;;;;;;4990258;28;20069;-96
2022/01/28 21:42:10;;;;;;;;;;;3.40;99.90;;;;;;4994203;28;19994;-94
2022/01/28 21:44:36;;;;;;;;;;;3.40;99.90;;;;;;4993740;28;19922;-96
2022/01/28 21:47:05;;;;;;;;;;;3.40;99.90;;;;;;4993044;28;19922;-95
2022/01/28 21:49:31;;;;;;;;;;;3.40;99.90;;;;;;4993370;28;20047;-96
2022/01/28 21:51:56;;;;;;;;;;;3.40;99.90;;;;;;4993332;28;19910;-96
2022/01/28 21:54:22;;;;;;;;;;;3.30;99.90;;;;;;4991057;28;19910;-96
2022/01/28 21:56:48;;;;;;;;;;;3.30;99.90;;;;;;4989036;28;19917;-96
2022/01/28 21:59:16;;;;;;;;;;;3.30;99.90;;;;;;4995608;28;19909;-96
2022/01/28 22:01:44;;;;;;;;;;;3.30;99.90;;;;;;4993422;28;19917;-96
2022/01/28 22:04:09;;;;;;;;;;;3.30;99.90;;;;;;4991361;28;19910;-96
2022/01/28 22:06:38;;;;;;;;;;;3.30;99.90;;;;;;5008417;28;19972;-95
2022/01/28 22:09:08;;;;;;;;;;;3.30;99.90;;;;;;4996407;28;19917;-96
2022/01/28 22:11:34;;;;;;;;;;;3.30;99.90;;;;;;4996831;28;19983;-96
2022/01/28 22:14:02;;;;;;;;;;;3.30;99.90;;;;;;4997660;28;19945;-96
2022/01/28 22:16:28;;;;;;;;;;;3.30;99.90;;;;;;4999734;28;19900;-96
2022/01/28 22:18:54;;;;;;;;;;;3.30;99.90;;;;;;4999986;28;19937;-96
2022/01/28 22:21:24;;;;;;;;;;;3.30;99.90;;;;;;4998561;28;19910;-96
2022/01/28 22:23:50;;;;;;;;;;;3.30;99.90;;;;;;4998905;28;19893;-96
2022/01/28 22:26:15;;;;;;;;;;;3.30;99.90;;;;;;4999243;28;19953;-95
2022/01/28 22:28:41;;;;;;;;;;;3.30;99.90;;;;;;4981470;28;19914;-96
2022/01/28 22:31:13;;;;;;;;;;;3.30;99.90;;;;;;5000730;28;19894;-96
2022/01/28 22:33:40;;;;;;;;;;;3.30;99.90;;;;;;4998952;28;19956;-96
2022/01/28 22:36:08;;;;;;;;;;;3.30;99.90;;;;;;4996791;28;19910;-96
2022/01/28 22:38:34;;;;;;;;;;;3.30;99.90;;;;;;5000000;28;19916;-96
2022/01/28 22:41:05;;;;;;;;;;;3.20;99.90;;;;;;4998475;28;19909;-96
2022/01/28 22:43:40;;;;;;;;;;;3.20;99.90;;;;;;4996519;28;19910;-96
2022/01/28 22:46:06;;;;;;;;;;;3.30;99.90;;;;;;4996339;28;19922;-96
2022/01/28 22:48:34;;;;;;;;;;;3.30;99.90;;;;;;4998328;28;19908;-96
2022/01/28 22:51:00;;;;;;;;;;;3.20;99.90;;;;;;4998829;28;19941;-96
2022/01/28 22:53:28;;;;;;;;;;;3.20;99.90;;;;;;4997475;28;19910;-96
2022/01/28 22:55:54;;;;;;;;;;;3.20;99.90;;;;;;4998731;28;19909;-96
2022/01/28 22:58:19;;;;;;;;;;;3.20;99.90;;;;;;4997908;28;20005;-96
2022/01/28 23:00:45;;;;;;;;;;;3.20;99.90;;;;;;4997263;28;19965;-95
2022/01/28 23:03:13;;;;;;;;;;;3.20;99.90;;;;;;4997580;28;19964;-96
2022/01/28 23:05:39;;;;;;;;;;;3.20;99.90;;;;;;4996293;28;19913;-95
2022/01/28 23:08:05;;;;;;;;;;;3.30;99.90;;;;;;4995966;28;19910;-96
2022/01/28 23:10:39;;;;;;;;;;;3.30;99.90;;;;;;4998647;28;19910;-95
2022/01/28 23:13:07;;;;;;;;;;;3.30;99.90;;;;;;4996380;28;19913;-96
2022/01/28 23:15:33;;;;;;;;;;;3.30;99.90;;;;;;4980202;28;19928;-96
2022/01/28 23:18:01;;;;;;;;;;;3.30;99.90;;;;;;4974010;28;19933;-96
2022/01/28 23:20:27;;;;;;;;;;;3.30;99.90;;;;;;4976226;28;19910;-96
2022/01/28 23:22:53;;;;;;;;;;;3.30;99.90;;;;;;4976475;28;20313;-96
2022/01/28 23:25:28;;;;;;;;;;;3.20;99.90;;;;;;4975774;28;19910;-95
2022/01/28 23:27:54;;;;;;;;;;;3.20;99.90;;;;;;4977876;28;19919;-95
2022/01/28 23:30:20;;;;;;;;;;;3.20;99.90;;;;;;4978620;28;19933;-96
2022/01/28 23:32:48;;;;;;;;;;;3.10;99.90;;;;;;4977852;28;20009;-95
2022/01/28 23:35:14;;;;;;;;;;;3.10;99.90;;;;;;4978270;28;19917;-95
2022/01/28 23:37:41;;;;;;;;;;;3.00;99.90;;;;;;4977622;28;19910;-96
2022/01/28 23:40:08;;;;;;;;;;;3.00;99.90;;;;;;4977833;28;19945;-96
2022/01/28 23:42:34;;;;;;;;;;;3.00;99.90;;;;;;4978173;28;19917;-95
2022/01/28 23:45:00;;;;;;;;;;;3.00;99.90;;;;;;4975877;28;19910;-96
2022/01/28 23:47:26;;;;;;;;;;;3.00;99.90;;;;;;4976655;28;19918;-96
2022/01/28 23:49:51;;;;;;;;;;;3.00;99.90;;;;;;4976068;28;19944;-95
2022/01/28 23:52:35;;;;;;;;;;;3.00;99.90;;;;;;4978689;28;19910;-95
2022/01/28 23:55:00;;;;;;;;;;;2.90;99.90;;;;;;4976937;28;19917;-96
2022/01/28 23:57:28;;;;;;;;;;;2.90;99.90;;;;;;4979834;28;19910;-95
2022/01/28 23:59:55;;;;;;;;;;;2.90;99.90;;;;;;4979405;28;19917;-95
